createdAt,value
2022-10-19T00:01:03.079Z,15.88
2022-10-19T00:03:30.155Z,17.13
2022-10-19T00:05:57.040Z,13.65
2022-10-19T00:08:23.894Z,17.23
2022-10-19T00:10:50.632Z,19.40
2022-10-19T00:13:17.440Z,28.45
2022-10-19T00:15:45.311Z,22.40
2022-10-19T00:18:13.549Z,21.00
2022-10-19T00:20:40.464Z,22.13
2022-10-19T00:23:07.427Z,17.10
2022-10-19T00:25:34.245Z,16.33
2022-10-19T00:28:01.104Z,16.67
2022-10-19T00:30:27.943Z,18.80
2022-10-19T00:32:54.747Z,17.25
2022-10-19T00:35:23.022Z,20.45
2022-10-19T00:37:49.779Z,13.80
2022-10-19T00:40:16.760Z,14.60
2022-10-19T00:42:43.805Z,24.67
2022-10-19T00:45:15.983Z,29.27
2022-10-19T00:47:44.986Z,19.70
2022-10-19T00:50:14.569Z,15.10
2022-10-19T00:52:42.926Z,18.85
2022-10-19T00:55:11.278Z,16.75
2022-10-19T00:57:38.479Z,24.05
2022-10-19T01:00:07.667Z,15.45
2022-10-19T01:02:35.338Z,21.02
2022-10-19T01:05:03.218Z,17.48
2022-10-19T01:07:30.614Z,15.68
2022-10-19T01:10:00.580Z,23.65
2022-10-19T01:12:58.407Z,18.55
2022-10-19T01:15:32.840Z,20.33
2022-10-19T01:18:07.808Z,24.05
2022-10-19T01:21:01.444Z,20.80
2022-10-19T01:23:51.441Z,20.23
2022-10-19T01:26:36.513Z,19.27
2022-10-19T01:29:13.771Z,17.60
2022-10-19T01:31:48.266Z,32.70
2022-10-19T01:34:20.028Z,18.08
2022-10-19T01:36:59.689Z,28.20
2022-10-19T01:39:33.493Z,16.50
2022-10-19T01:42:06.400Z,21.02
2022-10-19T01:44:40.061Z,18.53
2022-10-19T01:47:15.721Z,21.23
2022-10-19T01:49:44.768Z,19.42
2022-10-19T01:52:16.073Z,26.92
2022-10-19T01:54:47.673Z,18.83
2022-10-19T01:57:20.877Z,19.40
2022-10-19T01:59:49.339Z,16.77
2022-10-19T02:02:18.678Z,37.10
2022-10-19T02:04:46.909Z,25.90
2022-10-19T02:07:14.233Z,33.35
2022-10-19T02:09:41.030Z,29.88
2022-10-19T02:12:11.399Z,38.97
2022-10-19T02:14:42.851Z,25.88
2022-10-19T02:17:13.914Z,21.05
2022-10-19T02:19:42.168Z,19.27
2022-10-19T02:22:10.157Z,22.00
2022-10-19T02:24:36.955Z,29.73
2022-10-19T02:27:05.601Z,29.58
2022-10-19T02:29:33.110Z,24.40
2022-10-19T02:32:00.160Z,23.75
2022-10-19T02:34:27.145Z,18.05
2022-10-19T02:36:55.773Z,30.80
2022-10-19T02:39:23.174Z,21.35
2022-10-19T02:41:55.176Z,34.53
2022-10-19T02:44:26.814Z,25.00
2022-10-19T02:46:58.108Z,27.10
2022-10-19T02:49:25.542Z,25.65
2022-10-19T02:52:00.861Z,32.10
2022-10-19T02:54:28.312Z,25.77
2022-10-19T02:56:55.210Z,21.63
2022-10-19T02:59:22.729Z,30.98
2022-10-19T03:01:49.848Z,31.80
2022-10-19T03:04:16.887Z,27.05
2022-10-19T03:06:43.991Z,21.58
2022-10-19T03:09:12.245Z,21.88
2022-10-19T03:11:39.096Z,27.45
2022-10-19T03:14:05.889Z,33.00
2022-10-19T03:16:32.846Z,38.78
2022-10-19T03:18:59.568Z,32.20
2022-10-19T03:21:26.353Z,35.53
2022-10-19T03:23:53.099Z,37.20
2022-10-19T03:26:21.301Z,21.10
2022-10-19T03:28:48.151Z,29.92
2022-10-19T03:31:14.982Z,25.95
2022-10-19T03:33:41.766Z,22.38
2022-10-19T03:36:17.191Z,22.58
2022-10-19T03:38:44.181Z,40.05
2022-10-19T03:41:12.397Z,27.80
2022-10-19T03:43:41.307Z,29.10
2022-10-19T03:46:08.769Z,36.25
2022-10-19T03:48:35.845Z,31.45
2022-10-19T03:51:05.319Z,31.95
2022-10-19T03:53:33.221Z,50.33
2022-10-19T03:56:04.913Z,26.55
2022-10-19T03:58:34.124Z,33.55
2022-10-19T04:01:06.332Z,37.40
2022-10-19T04:03:33.278Z,28.20
2022-10-19T04:06:03.851Z,31.02
2022-10-19T04:08:31.193Z,20.65
2022-10-19T04:11:01.495Z,23.80
2022-10-19T04:13:29.039Z,43.58
2022-10-19T04:15:56.057Z,24.05
2022-10-19T04:18:24.201Z,26.52
2022-10-19T04:20:56.150Z,29.05
2022-10-19T04:23:23.044Z,26.55
2022-10-19T04:25:49.978Z,20.50
2022-10-19T04:28:16.744Z,35.88
2022-10-19T04:30:43.586Z,22.65
2022-10-19T04:33:10.448Z,24.77
2022-10-19T04:35:38.590Z,24.17
2022-10-19T04:38:05.401Z,20.80
2022-10-19T04:40:34.842Z,25.75
2022-10-19T04:43:01.631Z,26.25
2022-10-19T04:45:28.450Z,27.08
2022-10-19T04:47:56.635Z,24.40
2022-10-19T04:50:23.705Z,58.95
2022-10-19T04:52:51.939Z,19.98
2022-10-19T04:55:18.761Z,27.50
2022-10-19T04:57:45.544Z,20.38
2022-10-19T05:00:13.711Z,18.33
2022-10-19T05:02:43.718Z,21.55
2022-10-19T05:05:10.486Z,15.35
2022-10-19T05:07:37.321Z,22.58
2022-10-19T05:10:06.727Z,29.15
2022-10-19T05:12:35.301Z,27.52
2022-10-19T05:15:02.167Z,27.08
2022-10-19T05:17:30.288Z,16.15
2022-10-19T05:19:57.448Z,39.30
2022-10-19T05:22:24.430Z,38.45
2022-10-19T05:24:54.497Z,14.35
2022-10-19T05:27:26.115Z,23.05
2022-10-19T05:29:52.880Z,19.58
2022-10-19T05:32:19.700Z,29.27
2022-10-19T05:34:46.527Z,25.10
2022-10-19T05:37:13.301Z,22.58
2022-10-19T05:39:40.261Z,21.33
2022-10-19T05:42:06.997Z,17.20
2022-10-19T05:44:36.060Z,17.08
2022-10-19T05:47:02.910Z,31.02
2022-10-19T05:49:30.155Z,22.67
2022-10-19T05:51:56.956Z,15.93
2022-10-19T05:54:26.357Z,16.95
2022-10-19T05:56:55.360Z,21.17
2022-10-19T05:59:23.637Z,21.27
2022-10-19T06:01:51.784Z,26.23
2022-10-19T06:04:19.498Z,28.63
2022-10-19T06:06:46.334Z,21.50
2022-10-19T06:09:13.266Z,21.45
2022-10-19T06:11:41.986Z,32.85
2022-10-19T06:14:12.295Z,25.67
2022-10-19T06:16:39.115Z,29.70
2022-10-19T06:19:07.443Z,26.15
2022-10-19T06:21:34.721Z,28.60
2022-10-19T06:24:03.640Z,27.15
2022-10-19T06:26:32.076Z,17.73
2022-10-19T06:29:00.728Z,27.63
2022-10-19T06:31:27.771Z,32.53
2022-10-19T06:33:55.680Z,26.77
2022-10-19T06:36:25.995Z,26.55
2022-10-19T06:38:53.283Z,23.13
2022-10-19T06:41:20.988Z,27.38
2022-10-19T06:43:51.407Z,23.65
2022-10-19T06:46:20.719Z,40.83
2022-10-19T06:48:51.643Z,18.33
2022-10-19T06:51:18.448Z,30.27
2022-10-19T06:53:46.953Z,22.65
2022-10-19T06:56:14.013Z,31.08
2022-10-19T06:58:40.827Z,17.42
2022-10-19T07:01:08.732Z,31.52
2022-10-19T07:03:36.582Z,22.60
2022-10-19T07:06:05.439Z,36.05
2022-10-19T07:08:33.238Z,35.20
2022-10-19T07:11:04.745Z,18.77
2022-10-19T07:13:31.625Z,21.10
2022-10-19T07:15:59.233Z,20.90
2022-10-19T07:18:26.763Z,24.65
2022-10-19T07:20:57.762Z,21.75
2022-10-19T07:23:25.314Z,16.67
2022-10-19T07:25:53.729Z,21.02
2022-10-19T07:28:22.296Z,18.05
2022-10-19T07:30:49.221Z,27.13
2022-10-19T07:35:47.889Z,28.40
2022-10-19T07:38:14.719Z,23.02
2022-10-19T07:40:44.855Z,26.48
2022-10-19T07:43:14.178Z,19.65
2022-10-19T07:45:42.407Z,19.83
2022-10-19T07:48:09.160Z,17.10
2022-10-19T07:50:36.095Z,22.40
2022-10-19T07:53:05.290Z,23.50
2022-10-19T07:55:34.175Z,24.02
2022-10-19T07:58:02.135Z,24.75
2022-10-19T08:00:29.805Z,16.75
2022-10-19T08:03:31.189Z,18.98
2022-10-19T08:05:45.043Z,21.20
2022-10-19T08:08:11.802Z,17.65
2022-10-19T08:10:38.811Z,22.77
2022-10-19T08:13:05.502Z,22.45
2022-10-19T08:15:32.553Z,25.13
2022-10-19T08:18:01.479Z,24.60
2022-10-19T08:20:28.313Z,20.48
2022-10-19T08:22:58.107Z,18.48
2022-10-19T08:25:26.057Z,34.00
2022-10-19T08:27:52.936Z,21.48
2022-10-19T08:30:19.807Z,26.02
2022-10-19T08:32:46.626Z,22.70
2022-10-19T08:35:14.867Z,16.88
2022-10-19T08:37:45.281Z,16.55
2022-10-19T08:40:17.642Z,20.40
2022-10-19T08:42:52.921Z,19.95
2022-10-19T08:45:39.380Z,19.63
2022-10-19T08:48:23.826Z,16.05
2022-10-19T08:50:54.761Z,31.83
2022-10-19T08:53:27.955Z,21.95
2022-10-19T08:56:04.919Z,15.65
2022-10-19T08:58:55.453Z,15.38
2022-10-19T09:01:35.395Z,19.42
2022-10-19T09:04:10.048Z,12.63
2022-10-19T09:06:49.780Z,19.77
2022-10-19T09:09:20.568Z,17.67
2022-10-19T09:11:49.687Z,25.58
2022-10-19T09:14:21.047Z,13.20
2022-10-19T09:16:48.001Z,13.13
2022-10-19T09:19:22.944Z,25.80
2022-10-19T09:21:54.493Z,13.38
2022-10-19T09:24:30.377Z,15.45
2022-10-19T09:26:59.807Z,16.80
2022-10-19T09:29:34.220Z,13.00
2022-10-19T09:32:05.266Z,26.98
2022-10-19T09:34:36.800Z,16.20
2022-10-19T09:37:04.954Z,16.58
2022-10-19T09:39:32.136Z,27.13
2022-10-19T09:42:05.095Z,15.93
2022-10-19T09:44:32.723Z,14.32
2022-10-19T09:47:13.927Z,13.38
2022-10-19T09:49:43.165Z,11.10
2022-10-19T09:52:33.802Z,18.65
2022-10-19T09:55:03.249Z,15.10
2022-10-19T09:57:30.746Z,17.67
2022-10-19T09:59:57.974Z,11.10
2022-10-19T10:02:31.475Z,13.25
2022-10-19T10:05:06.470Z,17.92
2022-10-19T10:07:37.719Z,22.10
2022-10-19T10:10:11.245Z,20.05
2022-10-19T10:12:40.331Z,11.73
2022-10-19T10:15:08.112Z,13.43
2022-10-19T10:17:36.888Z,17.02
2022-10-19T10:20:20.978Z,15.88
2022-10-19T10:25:21.929Z,14.75
2022-10-19T10:27:56.021Z,11.82
2022-10-19T10:30:22.984Z,15.98
2022-10-19T10:32:52.559Z,14.52
2022-10-19T10:35:23.282Z,19.83
2022-10-19T10:37:50.427Z,19.13
2022-10-19T10:40:23.785Z,20.80
2022-10-19T10:42:53.627Z,12.25
2022-10-19T10:45:24.598Z,11.68
2022-10-19T10:47:52.934Z,11.52
2022-10-19T10:50:22.911Z,13.75
2022-10-19T10:53:00.885Z,17.83
2022-10-19T10:55:29.662Z,22.33
2022-10-19T10:58:11.894Z,9.23
2022-10-19T11:00:40.385Z,13.10
2022-10-19T11:03:14.581Z,13.30
2022-10-19T11:05:45.398Z,22.67
2022-10-19T11:08:23.802Z,10.65
2022-10-19T11:10:58.936Z,15.45
2022-10-19T11:13:31.027Z,19.70
2022-10-19T11:16:02.732Z,16.73
2022-10-19T11:18:32.603Z,16.02
2022-10-19T11:21:06.131Z,15.32
2022-10-19T11:23:45.993Z,19.77
2022-10-19T11:26:33.641Z,11.38
2022-10-19T11:29:13.985Z,16.35
2022-10-19T11:31:47.222Z,16.63
2022-10-19T11:34:37.940Z,17.13
2022-10-19T11:37:17.231Z,18.60
2022-10-19T11:39:55.674Z,14.65
2022-10-19T11:42:34.617Z,14.00
2022-10-19T11:45:13.606Z,26.50
2022-10-19T11:47:54.598Z,21.88
2022-10-19T11:50:33.429Z,18.05
2022-10-19T11:53:07.732Z,15.90
2022-10-19T11:55:42.092Z,22.67
2022-10-19T11:58:31.152Z,17.02
2022-10-19T12:01:14.364Z,14.30
2022-10-19T12:04:17.477Z,29.20
2022-10-19T12:06:52.051Z,12.88
2022-10-19T12:09:28.272Z,13.35
2022-10-19T12:12:09.225Z,19.40
2022-10-19T12:14:41.129Z,12.80
2022-10-19T12:19:46.505Z,16.55
2022-10-19T12:22:19.279Z,14.63
2022-10-19T12:24:46.566Z,17.27
2022-10-19T12:27:16.532Z,14.43
2022-10-19T12:29:49.035Z,15.98
2022-10-19T12:32:19.885Z,21.77
2022-10-19T12:34:56.518Z,15.32
2022-10-19T12:37:28.179Z,19.67
2022-10-19T12:40:00.891Z,15.40
2022-10-19T12:42:32.599Z,15.32
2022-10-19T12:45:25.318Z,15.57
2022-10-19T12:48:23.002Z,17.02
2022-10-19T12:51:02.199Z,17.17
2022-10-19T12:53:31.373Z,13.93
2022-10-19T12:56:01.425Z,19.60
2022-10-19T12:58:34.391Z,20.25
2022-10-19T13:01:05.676Z,15.13
2022-10-19T13:03:35.189Z,17.08
2022-10-19T13:06:07.089Z,15.25
2022-10-19T13:08:41.549Z,19.85
2022-10-19T13:11:14.699Z,27.23
2022-10-19T13:13:55.243Z,14.35
2022-10-19T13:17:00.360Z,18.70
2022-10-19T13:19:27.425Z,19.17
2022-10-19T13:22:14.773Z,13.63
2022-10-19T13:27:26.095Z,25.45
2022-10-19T13:29:53.172Z,15.77
2022-10-19T13:32:43.497Z,12.02
2022-10-19T13:35:30.282Z,15.57
2022-10-19T13:38:28.073Z,20.75
2022-10-19T13:41:14.187Z,17.60
2022-10-19T13:43:51.721Z,15.75
2022-10-19T13:46:21.511Z,13.90
2022-10-19T13:49:15.158Z,22.83
2022-10-19T13:51:54.243Z,15.23
2022-10-19T13:54:42.666Z,20.65
2022-10-19T13:57:23.028Z,18.88
2022-10-19T14:00:18.997Z,16.30
2022-10-19T14:03:04.322Z,17.27
2022-10-19T14:05:55.831Z,16.65
2022-10-19T14:08:54.471Z,18.00
2022-10-19T14:11:26.270Z,16.27
2022-10-19T14:14:12.925Z,15.45
2022-10-19T14:16:50.760Z,21.80
2022-10-19T14:19:27.436Z,15.80
2022-10-19T14:21:58.618Z,21.15
2022-10-19T14:24:29.587Z,15.18
2022-10-19T14:26:57.131Z,18.70
2022-10-19T14:29:24.048Z,13.27
2022-10-19T14:31:52.288Z,15.52
2022-10-19T14:34:19.421Z,18.52
2022-10-19T14:36:48.799Z,18.33
2022-10-19T14:39:34.870Z,15.55
2022-10-19T14:42:05.871Z,15.00
2022-10-19T14:44:39.678Z,20.73
2022-10-19T14:49:45.034Z,12.88
2022-10-19T14:52:19.104Z,14.40
2022-10-19T14:54:51.780Z,11.27
2022-10-19T14:57:24.819Z,14.00
2022-10-19T14:59:54.934Z,17.40
2022-10-19T15:02:25.468Z,14.68
2022-10-19T15:04:54.413Z,13.27
2022-10-19T15:07:24.609Z,14.75
2022-10-19T15:09:56.726Z,16.17
2022-10-19T15:12:27.541Z,13.38
2022-10-19T15:14:54.860Z,22.58
2022-10-19T15:17:25.222Z,17.10
2022-10-19T15:19:52.778Z,18.27
2022-10-19T15:22:21.951Z,15.65
2022-10-19T15:25:02.687Z,15.30
2022-10-19T15:27:32.566Z,22.80
2022-10-19T15:30:01.132Z,15.60
2022-10-19T15:32:32.274Z,11.60
2022-10-19T15:34:59.409Z,18.05
2022-10-19T15:39:59.522Z,17.77
2022-10-19T15:42:37.604Z,20.95
2022-10-19T15:45:25.169Z,13.93
2022-10-19T15:48:23.877Z,19.38
2022-10-19T15:50:53.230Z,14.93
2022-10-19T15:53:20.790Z,17.30
2022-10-19T15:55:47.690Z,12.85
2022-10-19T15:58:15.258Z,18.48
2022-10-19T16:00:42.331Z,21.55
2022-10-19T16:03:09.339Z,20.00
2022-10-19T16:05:37.739Z,17.65
2022-10-19T16:08:07.866Z,18.17
2022-10-19T16:10:37.040Z,14.48
2022-10-19T16:13:03.923Z,13.52
2022-10-19T16:15:30.717Z,19.30
2022-10-19T16:18:00.006Z,19.13
2022-10-19T16:20:28.946Z,14.90
2022-10-19T16:22:57.786Z,14.85
2022-10-19T16:25:24.620Z,14.15
2022-10-19T16:27:51.599Z,17.00
2022-10-19T16:30:18.448Z,15.07
2022-10-19T16:32:47.993Z,15.65
2022-10-19T16:35:15.015Z,16.90
2022-10-19T16:37:41.742Z,17.73
2022-10-19T16:40:11.087Z,17.98
2022-10-19T16:42:38.104Z,24.13
2022-10-19T16:45:05.965Z,20.45
2022-10-19T16:47:32.784Z,17.17
2022-10-19T16:50:01.108Z,18.48
2022-10-19T16:52:28.264Z,19.77
2022-10-19T16:54:55.294Z,30.85
2022-10-19T16:57:23.640Z,18.60
2022-10-19T17:02:23.694Z,17.48
2022-10-19T17:04:50.594Z,19.90
2022-10-19T17:07:19.078Z,20.13
2022-10-19T17:09:46.296Z,17.70
2022-10-19T17:12:14.427Z,20.83
2022-10-19T17:14:43.466Z,15.25
2022-10-19T17:17:11.110Z,15.65
2022-10-19T17:19:38.135Z,17.25
2022-10-19T17:22:05.628Z,17.17
2022-10-19T17:24:32.549Z,26.15
2022-10-19T17:27:02.723Z,23.38
2022-10-19T17:29:30.126Z,21.88
2022-10-19T17:31:58.929Z,23.42
2022-10-19T17:34:27.351Z,20.55
2022-10-19T17:36:54.639Z,15.45
2022-10-19T17:39:25.789Z,22.85
2022-10-19T17:41:57.574Z,20.67
2022-10-19T17:44:24.465Z,17.70
2022-10-19T17:46:51.204Z,19.92
2022-10-19T17:49:19.385Z,26.60
2022-10-19T17:51:46.279Z,18.95
2022-10-19T17:54:14.386Z,15.00
2022-10-19T17:56:41.795Z,20.25
2022-10-19T17:59:09.176Z,26.73
2022-10-19T18:01:36.930Z,26.33
2022-10-19T18:04:03.785Z,22.67
2022-10-19T18:06:33.269Z,25.95
2022-10-19T18:09:02.054Z,22.27
2022-10-19T18:11:30.897Z,27.58
2022-10-19T18:14:00.133Z,21.02
2022-10-19T18:16:28.967Z,19.48
2022-10-19T18:18:57.457Z,25.50
2022-10-19T18:21:27.382Z,19.55
2022-10-19T18:23:57.444Z,26.20
2022-10-19T18:26:26.884Z,21.15
2022-10-19T18:28:55.180Z,19.55
2022-10-19T18:31:24.237Z,25.58
2022-10-19T18:33:57.422Z,32.33
2022-10-19T18:36:24.413Z,28.40
2022-10-19T18:38:52.101Z,26.73
2022-10-19T18:41:20.815Z,26.60
2022-10-19T18:43:51.756Z,30.35
2022-10-19T18:46:19.198Z,29.90
2022-10-19T18:48:46.666Z,28.77
2022-10-19T18:51:15.628Z,27.27
2022-10-19T18:53:43.460Z,31.08
2022-10-19T18:56:12.979Z,25.90
2022-10-19T18:58:41.782Z,31.27
2022-10-19T19:01:11.055Z,25.90
2022-10-19T19:03:39.881Z,23.70
2022-10-19T19:06:09.601Z,33.38
2022-10-19T19:08:36.537Z,30.65
2022-10-19T19:11:11.317Z,27.65
2022-10-19T19:13:38.586Z,37.45
2022-10-19T19:16:07.555Z,31.65
2022-10-19T19:18:34.964Z,27.70
2022-10-19T19:21:02.308Z,33.83
2022-10-19T19:23:29.401Z,28.65
2022-10-19T19:25:56.645Z,24.80
2022-10-19T19:28:23.505Z,30.83
2022-10-19T19:30:50.279Z,34.58
2022-10-19T19:33:18.446Z,26.27
2022-10-19T19:35:46.520Z,32.78
2022-10-19T19:38:15.214Z,32.33
2022-10-19T19:40:43.413Z,29.20
2022-10-19T19:43:10.853Z,38.45
2022-10-19T19:45:38.353Z,29.52
2022-10-19T19:48:06.735Z,35.20
2022-10-19T19:50:38.214Z,33.65
2022-10-19T19:53:05.162Z,29.27
2022-10-19T19:55:38.167Z,36.42
2022-10-19T19:58:05.952Z,30.60
2022-10-19T20:00:32.890Z,31.67
2022-10-19T20:02:59.996Z,36.55
2022-10-19T20:05:28.420Z,30.65
2022-10-19T20:07:56.627Z,35.75
2022-10-19T20:10:23.777Z,28.63
2022-10-19T20:12:50.714Z,42.08
2022-10-19T20:15:18.394Z,39.95
2022-10-19T20:17:45.548Z,36.28
2022-10-19T20:20:13.694Z,34.40
2022-10-19T20:22:45.094Z,30.33
2022-10-19T20:25:13.302Z,33.15
2022-10-19T20:27:40.443Z,36.80
2022-10-19T20:30:08.710Z,34.15
2022-10-19T20:32:36.129Z,39.55
2022-10-19T20:35:03.816Z,34.85
2022-10-19T20:37:31.380Z,34.78
2022-10-19T20:39:58.395Z,37.67
2022-10-19T20:42:26.532Z,33.05
2022-10-19T20:44:54.745Z,31.13
2022-10-19T20:47:21.595Z,38.33
2022-10-19T20:49:48.438Z,27.38
2022-10-19T20:52:15.187Z,35.42
2022-10-19T20:54:42.064Z,30.08
2022-10-19T20:57:08.879Z,31.80
2022-10-19T20:59:38.750Z,94.32
2022-10-19T21:02:05.523Z,221.23
2022-10-19T21:04:32.364Z,293.80
2022-10-19T21:07:00.165Z,116.47
2022-10-19T21:09:26.939Z,52.83
2022-10-19T21:11:53.817Z,33.20
2022-10-19T21:14:25.336Z,29.13
2022-10-19T21:16:56.910Z,30.05
2022-10-19T21:19:25.612Z,25.65
2022-10-19T21:21:57.738Z,25.33
2022-10-19T21:24:26.796Z,32.25
2022-10-19T21:26:53.887Z,29.10
2022-10-19T21:29:20.845Z,25.38
2022-10-19T21:31:49.503Z,29.75
2022-10-19T21:34:19.922Z,34.33
2022-10-19T21:36:47.004Z,33.42
2022-10-19T21:39:13.864Z,31.13
2022-10-19T21:41:40.663Z,28.73
2022-10-19T21:44:07.451Z,27.27
2022-10-19T21:46:34.565Z,29.70
2022-10-19T21:49:01.396Z,23.52
2022-10-19T21:51:35.104Z,26.08
2022-10-19T21:54:02.281Z,27.38
2022-10-19T21:56:29.553Z,32.10
2022-10-19T21:58:56.734Z,33.45
2022-10-19T22:01:25.550Z,34.00
2022-10-19T22:03:56.139Z,26.70
2022-10-19T22:06:23.089Z,28.52
2022-10-19T22:08:51.369Z,26.02
2022-10-19T22:11:18.152Z,26.40
2022-10-19T22:13:44.933Z,25.85
2022-10-19T22:16:14.387Z,29.65
2022-10-19T22:18:41.968Z,25.58
2022-10-19T22:21:10.728Z,26.10
2022-10-19T22:23:37.555Z,22.77
2022-10-19T22:26:13.613Z,24.02
2022-10-19T22:28:40.837Z,26.95
2022-10-19T22:31:07.735Z,24.33
2022-10-19T22:33:34.798Z,20.02
2022-10-19T22:36:03.410Z,20.20
2022-10-19T22:38:30.433Z,24.23
2022-10-19T22:40:57.215Z,30.25
2022-10-19T22:43:25.422Z,20.17
2022-10-19T22:45:52.215Z,28.75
2022-10-19T22:48:19.541Z,23.73
2022-10-19T22:50:46.574Z,25.80
2022-10-19T22:53:13.611Z,21.60
2022-10-19T22:55:40.663Z,23.63
2022-10-19T22:58:08.456Z,22.85
2022-10-19T23:00:36.931Z,25.83
2022-10-19T23:03:04.437Z,27.90
2022-10-19T23:05:31.452Z,21.13
2022-10-19T23:07:58.337Z,19.02
2022-10-19T23:10:25.687Z,27.92
2022-10-19T23:12:54.023Z,26.33
2022-10-19T23:15:21.597Z,19.75
2022-10-19T23:17:49.787Z,24.95
2022-10-19T23:20:16.631Z,18.70
2022-10-19T23:22:43.372Z,25.98
2022-10-19T23:25:10.165Z,25.02
2022-10-19T23:27:37.484Z,26.17
2022-10-19T23:30:05.251Z,28.88
2022-10-19T23:32:32.160Z,27.90
2022-10-19T23:35:00.327Z,28.27
2022-10-19T23:37:27.218Z,26.42
2022-10-19T23:39:54.039Z,40.97
2022-10-19T23:42:20.749Z,22.80
2022-10-19T23:44:47.549Z,27.08
2022-10-19T23:47:14.284Z,26.10
2022-10-19T23:49:41.142Z,27.65
2022-10-19T23:52:09.253Z,28.75
2022-10-19T23:54:36.156Z,33.70
2022-10-19T23:57:03.053Z,30.67
2022-10-19T23:59:29.835Z,22.30
